x

Long Island - 30 Nm South Of Islip, Ny (44025) Wave Buoy

1:50am - Sun 24th Jul 2016 All times are EDT. -4 hours from GMT.

  • Sig Wave height 3.0ft
  • Swell Direction
  • Peak Period 6s
  • Average Period 5s
  • Wind
    9mph, 11mph gusts
  • Sea Temp 74°f
  • Air Temp 77°f
  • Sea Pressure 1012.6mb
  • Long Island - 30 Nm South Of Islip, Ny
  • Long Island - 30 Nm South Of Islip, Ny

More Historic Weather Station data

Upgrade to MSW Pro to gain access to the past 30 days of data for over 8000 Wavebouys and Weather Stations around the globe.

Join Pro

Comparision Forecast

View Surf forecast
   
Sun 07/24 1:50am 3ft 6s 5s 9 11 mph 1012.6mb 74f 77f
12:50am 3.5ft 6s 5s 9 11 mph 1011.9mb 74f 78f
Sat 07/23 11:50pm 3.5ft 6s 5s 9 11 mph 1011.5mb 74f 77f
10:50pm 3.5ft 6s 5s 9 11 mph 1011mb 74f 77f
9:50pm 3.5ft 6s 4s 16 20 mph 1010.2mb 75f 78f
8:50pm 3.5ft 6s 4s 18 22 mph 1009.6mb 75f 78f
7:50pm 3ft 7s 5s 18 20 mph 1009.3mb 76f 78f
6:50pm 2.5ft 7s 5s 13 16 mph 1008.8mb 76f 79f
5:50pm 3ft 6s 5s 11
mph
1008.7mb 76f 79f
4:50pm 3ft 8s 5s 11 13 mph 1009.4mb 76f 79f
3:50pm 3ft 6s 5s 9
mph
1009.8mb 76f 79f
2:50pm 3.5ft 6s 5s 9 11 mph 1010mb 76f 80f
1:50pm 3.5ft 7s 5s 9 11 mph 1010.3mb 75f 79f
12:50pm 3.5ft 7s 5s 9
mph
1010.5mb 75f 77f
11:50am 3.5ft 7s  -  7 9 mph 1010.8mb 74f 76f
10:50am 3.5ft 6s 5s 4 7 mph 1010.7mb 74f 76f
9:50am 3.5ft 7s 5s 11 13 mph 1010.6mb 73f 76f
8:50am 3.5ft 6s 5s 13 16 mph 1010.3mb 73f 76f
7:50am 4ft 7s 5s 11 13 mph 1010.5mb 73f 76f
6:50am 4.5ft 6s 5s 13 16 mph 1010.2mb 73f 76f
5:50am 4.5ft 6s 5s 13 16 mph 1009.8mb 73f 76f
4:50am 4.5ft 6s 5s 16 18 mph 1009.3mb 73f 76f
3:50am 5ft 7s 5s 13 16 mph 1009.2mb 74f 76f
2:50am 5.5ft 7s 5s 16 20 mph 1009.2mb 74f 76f
1:50am 5.5ft 7s 5s 18 20 mph 1009.2mb 74f 76f
12:50am 5.5ft 6s 5s 20 22 mph 1009.4mb 74f 76f
Fri 07/22 11:50pm 5ft 6s 5s 22 25 mph 1009.6mb 74f 76f
10:50pm 5.5ft 6s 5s 20 25 mph 1009.5mb 74f 76f
9:50pm 5ft 6s 5s 20 25 mph 1009.9mb 74f 77f
8:50pm 6ft 6s 5s 25 29 mph 1009mb 74f 77f
7:50pm 5.5ft 6s 5s 22 27 mph 1009.1mb 74f 77f
6:50pm 5ft 6s 5s 22 27 mph 1009.3mb 74f 77f
5:50pm 5ft 6s 5s 22 27 mph 1010mb 74f 77f
4:50pm 5ft 5s 5s 22 27 mph 1010.6mb 74f 77f
3:50pm 4.5ft 5s 5s 22 27 mph 1011.1mb 74f 76f
2:50pm 4.5ft 5s 5s 22 27 mph 1012.1mb 74f 76f
1:50pm 4.5ft 5s 4s 20 25 mph 1012.5mb 74f 76f
12:50pm 4.5ft 5s 5s 20 25 mph 1013.1mb 74f 75f
11:50am 4.5ft 5s 5s 20 22 mph 1013.4mb 74f 75f
10:50am 4.5ft 5s 5s 20 25 mph 1013.7mb 74f 75f
9:50am 4ft 5s 5s 20 22 mph 1014.4mb 73f 75f
8:50am 3.5ft 5s 4s 18 22 mph 1014.9mb 73f 75f
7:50am 3.5ft 5s 5s 18 20 mph 1015.2mb 73f 75f
6:50am 3.5ft 5s 5s 16 18 mph 1015.8mb 73f 74f
5:50am 3.5ft 5s 5s 16 18 mph 1015.9mb 73f 75f
4:50am 3.5ft 5s 5s 16 20 mph 1016.1mb 73f 75f
3:50am 3.5ft 5s 5s 16 18 mph 1016.1mb 73f 75f
2:50am 4ft 5s 5s 16 18 mph 1016.5mb 73f 75f
1:50am 4.5ft 5s 5s 18 22 mph 1016.5mb 74f 75f
12:50am 4ft 5s 5s 18 20 mph 1016.9mb 74f 75f
Thu 07/21 11:50pm 4ft 5s 4s 18 20 mph 1017.5mb 74f 75f
10:50pm 4ft 5s 4s 18 20 mph 1017.9mb 74f 76f
9:50pm 4ft 4s 4s 20 22 mph 1017.9mb 75f 76f
8:50pm 3.5ft 4s 4s 20 25 mph 1017.5mb 75f 76f
7:50pm 3.5ft 9s 4s 20 25 mph 1017.6mb 75f 76f
6:50pm 3ft 9s 4s 20 22 mph 1018mb 75f 76f
5:50pm 2.5ft 9s 4s 20 22 mph 1018.7mb 76f 76f
4:50pm 2.5ft 9s 4s 18 22 mph 1018.9mb 76f 76f
3:50pm 2.5ft 9s 4s 16 18 mph 1019.7mb 76f 76f
2:50pm 2ft 9s 4s 16 20 mph 1019.9mb 76f 75f
1:50pm 1.6ft 9s 4s 16 18 mph 1020.3mb 76f 75f
12:50pm 1.6ft 9s 5s 13
mph
1020.8mb 76f 74f
11:50am 1.6ft 8s 5s 11 13 mph 1021.3mb 75f 74f
10:50am 2ft 8s 5s 9
mph
1021.3mb 75f 74f
9:50am 2ft 7s 5s 7 9 mph 1021.4mb 75f 73f
8:50am 1.6ft 9s 5s 7 9 mph 1021.5mb 74f 73f
7:50am 1.6ft 8s 5s 9 11 mph 1021.8mb 74f 74f
6:50am 1.6ft 8s 5s 9 11 mph 1021.3mb 74f 74f
5:50am 1.3ft 8s 5s 7 9 mph 1021.1mb 74f 74f
4:50am 1.6ft 8s 5s 7 9 mph 1020.9mb 74f 74f
3:50am 1.3ft 8s 5s 9
mph
1020.7mb 74f 74f
2:50am 1.6ft 8s 5s 7 9 mph 1021.2mb 74f 74f
1:50am 1.3ft 9s 4s 11
mph
1021.4mb 74f 74f
12:50am 1.3ft 8s 4s 11
mph
1021.5mb 75f 74f
Wed 07/20 11:50pm 1.3ft 8s 4s 9 11 mph 1021.7mb 75f 75f
10:50pm 1.3ft 9s 5s 9 11 mph 1021.6mb 75f 75f
9:50pm 1.3ft 9s 5s 11
mph
1021.5mb 75f 75f
8:50pm 1.6ft 10s 6s 11
mph
1020.8mb 75f 75f
7:50pm 1.6ft 9s 6s 9 11 mph 1020.5mb 76f 74f
6:50pm 1.6ft 9s 5s 9 11 mph 1020.5mb 76f 74f
5:50pm 1.3ft 7s 5s 7 9 mph 1020.6mb 76f 74f
4:50pm 1.3ft 6s 5s 7 9 mph 1021.4mb 76f 74f
3:50pm 1.6ft 6s 5s 4 7 mph 1021.7mb 76f 74f
2:50pm 1.3ft 6s 5s 4 7 mph 1022.2mb 76f 73f
1:50pm 1.6ft 9s 4s 4 7 mph 1022.8mb 75f 73f
12:50pm 1.6ft 8s 4s 7 9 mph 1023.1mb 75f 73f
11:50am 1.6ft 9s 4s 9 11 mph 1023.2mb 74f 73f
10:50am 1.6ft 6s 4s 11 13 mph 1023.1mb 74f 72f
9:50am 1.6ft 3s 4s 11 13 mph 1023.3mb 74f 72f
8:50am 2ft 3s 4s 11 13 mph 1023.2mb 74f 73f
7:50am 2ft 3s 4s 13
mph
1022.5mb 74f 73f